sensor_id;sensor_type;location;lat;lon;timestamp;pressure;altitude;pressure_sealevel;temperature;humidity
33432;BME280;35187;31.882;34.828;2023-07-20T00:01:09;99780;;;25;53
33432;BME280;35187;31.882;34.828;2023-07-20T00:03:39;99780;;;25;53
33432;BME280;35187;31.882;34.828;2023-07-20T00:06:08;99780;;;25;53
33432;BME280;35187;31.882;34.828;2023-07-20T00:08:37;99780;;;25;53
33432;BME280;35187;31.882;34.828;2023-07-20T00:11:05;99780;;;25;53
33432;BME280;35187;31.882;34.828;2023-07-20T00:13:34;99780;;;25;53
33432;BME280;35187;31.882;34.828;2023-07-20T00:16:03;99780;;;25;53
33432;BME280;35187;31.882;34.828;2023-07-20T00:18:32;99780;;;25;53
33432;BME280;35187;31.882;34.828;2023-07-20T00:21:01;99780;;;25;53
33432;BME280;35187;31.882;34.828;2023-07-20T00:23:30;99780;;;25;53
33432;BME280;35187;31.882;34.828;2023-07-20T00:25:58;99780;;;25;53
33432;BME280;35187;31.882;34.828;2023-07-20T00:28:27;99780;;;25;53
33432;BME280;35187;31.882;34.828;2023-07-20T00:30:56;99780;;;25;53
33432;BME280;35187;31.882;34.828;2023-07-20T00:33:25;99790;;;25;52
33432;BME280;35187;31.882;34.828;2023-07-20T00:35:54;99790;;;25;53
33432;BME280;35187;31.882;34.828;2023-07-20T00:38:22;99790;;;25;52
33432;BME280;35187;31.882;34.828;2023-07-20T00:40:51;99790;;;25;52
33432;BME280;35187;31.882;34.828;2023-07-20T00:43:20;99790;;;25;52
33432;BME280;35187;31.882;34.828;2023-07-20T00:45:49;99790;;;25;52
33432;BME280;35187;31.882;34.828;2023-07-20T00:48:18;99790;;;25;52
33432;BME280;35187;31.882;34.828;2023-07-20T00:50:48;99790;;;25;52
33432;BME280;35187;31.882;34.828;2023-07-20T00:53:16;99790;;;25;52
33432;BME280;35187;31.882;34.828;2023-07-20T00:55:46;99790;;;25;52
33432;BME280;35187;31.882;34.828;2023-07-20T00:58:15;99790;;;25;52
33432;BME280;35187;31.882;34.828;2023-07-20T01:00:44;99790;;;25;52
33432;BME280;35187;31.882;34.828;2023-07-20T01:03:13;99790;;;25;52
33432;BME280;35187;31.882;34.828;2023-07-20T01:05:48;99790;;;25;52
33432;BME280;35187;31.882;34.828;2023-07-20T01:08:27;99790;;;25;52
33432;BME280;35187;31.882;34.828;2023-07-20T01:11:10;99790;;;25;52
33432;BME280;35187;31.882;34.828;2023-07-20T01:13:42;99790;;;25;52
33432;BME280;35187;31.882;34.828;2023-07-20T01:16:11;99790;;;25;52
33432;BME280;35187;31.882;34.828;2023-07-20T01:18:40;99800;;;25;52
33432;BME280;35187;31.882;34.828;2023-07-20T01:21:12;99790;;;25;52
33432;BME280;35187;31.882;34.828;2023-07-20T01:24:00;99790;;;25;52
33432;BME280;35187;31.882;34.828;2023-07-20T01:26:52;99800;;;25;52
33432;BME280;35187;31.882;34.828;2023-07-20T01:29:42;99790;;;25;52
33432;BME280;35187;31.882;34.828;2023-07-20T01:32:16;99790;;;25;51
33432;BME280;35187;31.882;34.828;2023-07-20T01:34:47;99800;;;25;51
33432;BME280;35187;31.882;34.828;2023-07-20T01:37:18;99800;;;25;51
33432;BME280;35187;31.882;34.828;2023-07-20T01:39:49;99800;;;25;51
33432;BME280;35187;31.882;34.828;2023-07-20T01:42:19;99800;;;25;51
33432;BME280;35187;31.882;34.828;2023-07-20T01:44:48;99800;;;25;51
33432;BME280;35187;31.882;34.828;2023-07-20T01:47:19;99800;;;25;51
33432;BME280;35187;31.882;34.828;2023-07-20T01:49:48;99800;;;25;51
33432;BME280;35187;31.882;34.828;2023-07-20T01:52:16;99800;;;25;51
33432;BME280;35187;31.882;34.828;2023-07-20T01:54:45;99800;;;25;51
33432;BME280;35187;31.882;34.828;2023-07-20T01:57:14;99800;;;25;51
33432;BME280;35187;31.882;34.828;2023-07-20T01:59:43;99800;;;25;51
33432;BME280;35187;31.882;34.828;2023-07-20T02:02:11;99810;;;25;50
33432;BME280;35187;31.882;34.828;2023-07-20T02:04:40;99810;;;25;50
33432;BME280;35187;31.882;34.828;2023-07-20T02:07:09;99820;;;25;50
33432;BME280;35187;31.882;34.828;2023-07-20T02:09:38;99820;;;25;50
33432;BME280;35187;31.882;34.828;2023-07-20T02:12:07;99820;;;25;50
33432;BME280;35187;31.882;34.828;2023-07-20T02:14:36;99830;;;25;49
33432;BME280;35187;31.882;34.828;2023-07-20T02:17:05;99830;;;25;49
33432;BME280;35187;31.882;34.828;2023-07-20T02:19:34;99830;;;25;49
33432;BME280;35187;31.882;34.828;2023-07-20T02:22:03;99830;;;25;48
33432;BME280;35187;31.882;34.828;2023-07-20T02:24:33;99840;;;25;47
33432;BME280;35187;31.882;34.828;2023-07-20T02:27:01;99840;;;25;47
33432;BME280;35187;31.882;34.828;2023-07-20T02:29:30;99840;;;25;46
33432;BME280;35187;31.882;34.828;2023-07-20T02:31:59;99840;;;25;45
33432;BME280;35187;31.882;34.828;2023-07-20T02:34:28;99850;;;25;46
33432;BME280;35187;31.882;34.828;2023-07-20T02:36:56;99850;;;25;45
33432;BME280;35187;31.882;34.828;2023-07-20T02:39:27;99850;;;25;45
33432;BME280;35187;31.882;34.828;2023-07-20T02:41:56;99860;;;25;45
33432;BME280;35187;31.882;34.828;2023-07-20T02:44:25;99860;;;25;45
33432;BME280;35187;31.882;34.828;2023-07-20T02:46:53;99860;;;25;45
33432;BME280;35187;31.882;34.828;2023-07-20T02:49:22;99860;;;26;44
33432;BME280;35187;31.882;34.828;2023-07-20T02:51:51;99860;;;25;44
33432;BME280;35187;31.882;34.828;2023-07-20T02:54:20;99870;;;25;44
33432;BME280;35187;31.882;34.828;2023-07-20T02:56:49;99870;;;25;44
33432;BME280;35187;31.882;34.828;2023-07-20T02:59:18;99880;;;25;44
33432;BME280;35187;31.882;34.828;2023-07-20T03:01:47;99880;;;25;44
33432;BME280;35187;31.882;34.828;2023-07-20T03:04:16;99880;;;25;44
33432;BME280;35187;31.882;34.828;2023-07-20T03:06:44;99890;;;25;44
33432;BME280;35187;31.882;34.828;2023-07-20T03:09:13;99890;;;25;43
33432;BME280;35187;31.882;34.828;2023-07-20T03:11:42;99890;;;25;44
33432;BME280;35187;31.882;34.828;2023-07-20T03:14:11;99890;;;25;44
33432;BME280;35187;31.882;34.828;2023-07-20T03:16:39;99890;;;25;44
33432;BME280;35187;31.882;34.828;2023-07-20T03:19:08;99900;;;25;45
33432;BME280;35187;31.882;34.828;2023-07-20T03:21:37;99900;;;25;45
33432;BME280;35187;31.882;34.828;2023-07-20T03:24:06;99910;;;26;45
33432;BME280;35187;31.882;34.828;2023-07-20T03:26:35;99910;;;25;45
33432;BME280;35187;31.882;34.828;2023-07-20T03:29:04;99910;;;25;45
33432;BME280;35187;31.882;34.828;2023-07-20T03:31:33;99900;;;25;45
33432;BME280;35187;31.882;34.828;2023-07-20T03:34:02;99910;;;25;45
33432;BME280;35187;31.882;34.828;2023-07-20T03:36:31;99910;;;25;45
33432;BME280;35187;31.882;34.828;2023-07-20T03:39:00;99910;;;25;44
33432;BME280;35187;31.882;34.828;2023-07-20T03:41:29;99910;;;25;41
33432;BME280;35187;31.882;34.828;2023-07-20T03:43:57;99910;;;25;39
33432;BME280;35187;31.882;34.828;2023-07-20T03:46:26;99910;;;25;39
33432;BME280;35187;31.882;34.828;2023-07-20T03:48:55;99910;;;25;39
33432;BME280;35187;31.882;34.828;2023-07-20T03:51:24;99910;;;25;40
33432;BME280;35187;31.882;34.828;2023-07-20T03:53:53;99910;;;25;40
33432;BME280;35187;31.882;34.828;2023-07-20T03:56:21;99920;;;25;40
33432;BME280;35187;31.882;34.828;2023-07-20T03:58:50;99920;;;25;41
33432;BME280;35187;31.882;34.828;2023-07-20T04:01:19;99920;;;25;41
33432;BME280;35187;31.882;34.828;2023-07-20T04:03:48;99930;;;25;42
33432;BME280;35187;31.882;34.828;2023-07-20T04:06:16;99930;;;25;42
33432;BME280;35187;31.882;34.828;2023-07-20T04:08:45;99930;;;25;42
33432;BME280;35187;31.882;34.828;2023-07-20T04:11:14;99930;;;25;42
33432;BME280;35187;31.882;34.828;2023-07-20T04:13:43;99930;;;25;43
33432;BME280;35187;31.882;34.828;2023-07-20T04:16:12;99930;;;25;43
33432;BME280;35187;31.882;34.828;2023-07-20T04:18:40;99930;;;25;43
33432;BME280;35187;31.882;34.828;2023-07-20T04:21:09;99930;;;25;43
33432;BME280;35187;31.882;34.828;2023-07-20T04:23:38;99920;;;25;44
33432;BME280;35187;31.882;34.828;2023-07-20T04:26:07;99930;;;25;43
33432;BME280;35187;31.882;34.828;2023-07-20T04:28:35;99930;;;25;44
33432;BME280;35187;31.882;34.828;2023-07-20T04:31:12;99930;;;25;44
33432;BME280;35187;31.882;34.828;2023-07-20T04:33:41;99930;;;25;44
33432;BME280;35187;31.882;34.828;2023-07-20T04:36:10;99930;;;25;45
33432;BME280;35187;31.882;34.828;2023-07-20T04:38:39;99930;;;26;45
33432;BME280;35187;31.882;34.828;2023-07-20T04:41:08;99940;;;25;45
33432;BME280;35187;31.882;34.828;2023-07-20T04:43:38;99940;;;25;45
33432;BME280;35187;31.882;34.828;2023-07-20T04:46:09;99950;;;25;45
33432;BME280;35187;31.882;34.828;2023-07-20T04:48:38;99950;;;25;45
33432;BME280;35187;31.882;34.828;2023-07-20T04:51:07;99950;;;25;46
33432;BME280;35187;31.882;34.828;2023-07-20T04:53:36;99950;;;25;46
33432;BME280;35187;31.882;34.828;2023-07-20T04:56:05;99950;;;25;46
33432;BME280;35187;31.882;34.828;2023-07-20T04:58:33;99960;;;25;46
33432;BME280;35187;31.882;34.828;2023-07-20T05:01:02;99960;;;25;42
33432;BME280;35187;31.882;34.828;2023-07-20T05:03:31;99960;;;24;39
33432;BME280;35187;31.882;34.828;2023-07-20T05:06:00;99960;;;23;38
33432;BME280;35187;31.882;34.828;2023-07-20T05:08:29;99970;;;23;41
33432;BME280;35187;31.882;34.828;2023-07-20T05:10:59;99970;;;24;42
33432;BME280;35187;31.882;34.828;2023-07-20T05:13:28;99970;;;23;39
33432;BME280;35187;31.882;34.828;2023-07-20T05:15:56;99970;;;23;43
33432;BME280;35187;31.882;34.828;2023-07-20T05:18:25;99970;;;23;42
33432;BME280;35187;31.882;34.828;2023-07-20T05:20:54;99970;;;23;39
33432;BME280;35187;31.882;34.828;2023-07-20T05:23:23;99970;;;23;44
33432;BME280;35187;31.882;34.828;2023-07-20T05:25:54;99970;;;23;41
33432;BME280;35187;31.882;34.828;2023-07-20T05:28:23;99970;;;23;43
33432;BME280;35187;31.882;34.828;2023-07-20T05:30:52;99970;;;23;44
33432;BME280;35187;31.882;34.828;2023-07-20T05:33:21;99970;;;24;41
33432;BME280;35187;31.882;34.828;2023-07-20T05:35:50;99960;;;24;41
33432;BME280;35187;31.882;34.828;2023-07-20T05:38:19;99970;;;24;41
33432;BME280;35187;31.882;34.828;2023-07-20T05:40:48;99970;;;24;41
33432;BME280;35187;31.882;34.828;2023-07-20T05:43:17;99960;;;24;41
33432;BME280;35187;31.882;34.828;2023-07-20T05:45:45;99960;;;24;42
33432;BME280;35187;31.882;34.828;2023-07-20T05:48:14;99960;;;25;42
33432;BME280;35187;31.882;34.828;2023-07-20T05:50:43;99960;;;25;42
33432;BME280;35187;31.882;34.828;2023-07-20T05:53:12;99960;;;25;42
33432;BME280;35187;31.882;34.828;2023-07-20T05:55:41;99960;;;25;42
33432;BME280;35187;31.882;34.828;2023-07-20T05:58:10;99960;;;25;42
33432;BME280;35187;31.882;34.828;2023-07-20T06:00:38;99960;;;25;42
33432;BME280;35187;31.882;34.828;2023-07-20T06:03:07;99950;;;25;43
33432;BME280;35187;31.882;34.828;2023-07-20T06:05:36;99950;;;25;42
33432;BME280;35187;31.882;34.828;2023-07-20T06:08:05;99950;;;25;43
33432;BME280;35187;31.882;34.828;2023-07-20T06:10:34;99950;;;25;43
33432;BME280;35187;31.882;34.828;2023-07-20T06:13:03;99950;;;25;42
33432;BME280;35187;31.882;34.828;2023-07-20T06:15:32;99950;;;25;42
33432;BME280;35187;31.882;34.828;2023-07-20T06:18:02;99950;;;25;43
33432;BME280;35187;31.882;34.828;2023-07-20T06:20:31;99950;;;25;43
33432;BME280;35187;31.882;34.828;2023-07-20T06:22:59;99950;;;25;43
33432;BME280;35187;31.882;34.828;2023-07-20T06:25:28;99950;;;25;43
33432;BME280;35187;31.882;34.828;2023-07-20T06:27:57;99950;;;25;43
33432;BME280;35187;31.882;34.828;2023-07-20T06:30:26;99950;;;25;44
33432;BME280;35187;31.882;34.828;2023-07-20T06:32:54;99950;;;25;44
33432;BME280;35187;31.882;34.828;2023-07-20T06:35:23;99950;;;25;44
33432;BME280;35187;31.882;34.828;2023-07-20T06:37:52;99950;;;25;45
33432;BME280;35187;31.882;34.828;2023-07-20T06:40:21;99950;;;26;44
33432;BME280;35187;31.882;34.828;2023-07-20T06:42:50;99950;;;25;45
33432;BME280;35187;31.882;34.828;2023-07-20T06:45:19;99950;;;26;45
33432;BME280;35187;31.882;34.828;2023-07-20T06:47:48;99950;;;26;45
33432;BME280;35187;31.882;34.828;2023-07-20T06:50:17;99950;;;26;45
33432;BME280;35187;31.882;34.828;2023-07-20T06:52:46;99950;;;26;45
33432;BME280;35187;31.882;34.828;2023-07-20T06:55:14;99950;;;26;45
33432;BME280;35187;31.882;34.828;2023-07-20T06:57:43;99940;;;26;45
33432;BME280;35187;31.882;34.828;2023-07-20T07:00:13;99940;;;26;44
33432;BME280;35187;31.882;34.828;2023-07-20T07:02:42;99950;;;25;40
33432;BME280;35187;31.882;34.828;2023-07-20T07:05:11;99950;;;25;38
33432;BME280;35187;31.882;34.828;2023-07-20T07:07:40;99950;;;25;36
33432;BME280;35187;31.882;34.828;2023-07-20T07:10:09;99950;;;24;37
33432;BME280;35187;31.882;34.828;2023-07-20T07:12:38;99950;;;24;42
33432;BME280;35187;31.882;34.828;2023-07-20T07:15:07;99940;;;24;39
33432;BME280;35187;31.882;34.828;2023-07-20T07:17:36;99950;;;24;39
33432;BME280;35187;31.882;34.828;2023-07-20T07:20:07;99950;;;24;43
33432;BME280;35187;31.882;34.828;2023-07-20T07:22:36;99950;;;24;40
33432;BME280;35187;31.882;34.828;2023-07-20T07:25:05;99950;;;24;41
33432;BME280;35187;31.882;34.828;2023-07-20T07:27:34;99940;;;24;41
33432;BME280;35187;31.882;34.828;2023-07-20T07:30:04;99940;;;25;41
33432;BME280;35187;31.882;34.828;2023-07-20T07:32:33;99940;;;24;41
33432;BME280;35187;31.882;34.828;2023-07-20T07:35:02;99940;;;25;41
33432;BME280;35187;31.882;34.828;2023-07-20T07:37:31;99930;;;25;41
33432;BME280;35187;31.882;34.828;2023-07-20T07:39:59;99920;;;25;41
33432;BME280;35187;31.882;34.828;2023-07-20T07:42:29;99920;;;25;42
33432;BME280;35187;31.882;34.828;2023-07-20T07:44:58;99920;;;25;42
33432;BME280;35187;31.882;34.828;2023-07-20T07:47:27;99920;;;25;42
33432;BME280;35187;31.882;34.828;2023-07-20T07:49:55;99920;;;25;42
33432;BME280;35187;31.882;34.828;2023-07-20T07:52:24;99920;;;25;42
33432;BME280;35187;31.882;34.828;2023-07-20T07:54:53;99920;;;25;43
33432;BME280;35187;31.882;34.828;2023-07-20T07:57:22;99920;;;25;43
33432;BME280;35187;31.882;34.828;2023-07-20T07:59:51;99910;;;25;43
33432;BME280;35187;31.882;34.828;2023-07-20T08:02:19;99910;;;26;43
33432;BME280;35187;31.882;34.828;2023-07-20T08:04:48;99910;;;25;44
33432;BME280;35187;31.882;34.828;2023-07-20T08:07:17;99910;;;26;44
33432;BME280;35187;31.882;34.828;2023-07-20T08:09:46;99910;;;26;44
33432;BME280;35187;31.882;34.828;2023-07-20T08:12:15;99910;;;25;44
33432;BME280;35187;31.882;34.828;2023-07-20T08:14:44;99910;;;26;44
33432;BME280;35187;31.882;34.828;2023-07-20T08:17:12;99910;;;26;44
33432;BME280;35187;31.882;34.828;2023-07-20T08:19:41;99910;;;26;45
33432;BME280;35187;31.882;34.828;2023-07-20T08:22:10;99910;;;26;45
33432;BME280;35187;31.882;34.828;2023-07-20T08:24:40;99910;;;26;45
33432;BME280;35187;31.882;34.828;2023-07-20T08:27:09;99910;;;26;45
33432;BME280;35187;31.882;34.828;2023-07-20T08:29:38;99910;;;26;45
33432;BME280;35187;31.882;34.828;2023-07-20T08:32:08;99900;;;26;45
33432;BME280;35187;31.882;34.828;2023-07-20T08:34:36;99900;;;26;45
33432;BME280;35187;31.882;34.828;2023-07-20T08:37:05;99900;;;26;45
33432;BME280;35187;31.882;34.828;2023-07-20T08:39:34;99900;;;26;45
33432;BME280;35187;31.882;34.828;2023-07-20T08:42:05;99900;;;26;45
33432;BME280;35187;31.882;34.828;2023-07-20T08:44:34;99900;;;25;45
33432;BME280;35187;31.882;34.828;2023-07-20T08:47:05;99900;;;26;46
33432;BME280;35187;31.882;34.828;2023-07-20T08:49:36;99900;;;26;46
33432;BME280;35187;31.882;34.828;2023-07-20T08:52:08;99900;;;26;46
33432;BME280;35187;31.882;34.828;2023-07-20T08:54:37;99900;;;26;46
33432;BME280;35187;31.882;34.828;2023-07-20T08:57:06;99900;;;26;46
33432;BME280;35187;31.882;34.828;2023-07-20T08:59:37;99900;;;26;46
33432;BME280;35187;31.882;34.828;2023-07-20T09:02:08;99890;;;26;46
33432;BME280;35187;31.882;34.828;2023-07-20T09:04:41;99890;;;26;46
33432;BME280;35187;31.882;34.828;2023-07-20T09:07:10;99890;;;26;46
33432;BME280;35187;31.882;34.828;2023-07-20T09:09:40;99890;;;26;47
33432;BME280;35187;31.882;34.828;2023-07-20T09:12:13;99880;;;26;47
33432;BME280;35187;31.882;34.828;2023-07-20T09:14:43;99890;;;26;47
33432;BME280;35187;31.882;34.828;2023-07-20T09:17:14;99890;;;26;47
33432;BME280;35187;31.882;34.828;2023-07-20T09:19:46;99890;;;26;47
33432;BME280;35187;31.882;34.828;2023-07-20T09:22:15;99890;;;26;47
33432;BME280;35187;31.882;34.828;2023-07-20T09:24:44;99890;;;25;42
33432;BME280;35187;31.882;34.828;2023-07-20T09:27:13;99890;;;25;39
33432;BME280;35187;31.882;34.828;2023-07-20T09:29:48;99890;;;25;38
33432;BME280;35187;31.882;34.828;2023-07-20T09:32:20;99900;;;24;36
33432;BME280;35187;31.882;34.828;2023-07-20T09:34:50;99900;;;24;39
33432;BME280;35187;31.882;34.828;2023-07-20T09:37:21;99900;;;24;41
33432;BME280;35187;31.882;34.828;2023-07-20T09:39:52;99900;;;24;38
33432;BME280;35187;31.882;34.828;2023-07-20T09:42:22;99890;;;24;39
33432;BME280;35187;31.882;34.828;2023-07-20T09:44:51;99900;;;24;43
33432;BME280;35187;31.882;34.828;2023-07-20T09:47:23;99890;;;24;39
33432;BME280;35187;31.882;34.828;2023-07-20T09:49:58;99900;;;24;40
33432;BME280;35187;31.882;34.828;2023-07-20T09:52:27;99900;;;24;44
33432;BME280;35187;31.882;34.828;2023-07-20T09:54:57;99890;;;24;40
33432;BME280;35187;31.882;34.828;2023-07-20T09:57:27;99890;;;24;42
33432;BME280;35187;31.882;34.828;2023-07-20T09:59:56;99890;;;24;43
33432;BME280;35187;31.882;34.828;2023-07-20T10:02:29;99890;;;24;39
33432;BME280;35187;31.882;34.828;2023-07-20T10:05:02;99890;;;24;43
33432;BME280;35187;31.882;34.828;2023-07-20T10:07:32;99880;;;24;42
33432;BME280;35187;31.882;34.828;2023-07-20T10:10:05;99880;;;24;40
33432;BME280;35187;31.882;34.828;2023-07-20T10:12:35;99880;;;24;44
33432;BME280;35187;31.882;34.828;2023-07-20T10:15:11;99880;;;24;41
33432;BME280;35187;31.882;34.828;2023-07-20T10:17:53;99890;;;24;43
33432;BME280;35187;31.882;34.828;2023-07-20T10:20:26;99880;;;24;43
33432;BME280;35187;31.882;34.828;2023-07-20T10:22:56;99880;;;24;41
33432;BME280;35187;31.882;34.828;2023-07-20T10:25:25;99890;;;24;45
33432;BME280;35187;31.882;34.828;2023-07-20T10:27:55;99890;;;24;41
33432;BME280;35187;31.882;34.828;2023-07-20T10:30:25;99880;;;24;43
33432;BME280;35187;31.882;34.828;2023-07-20T10:32:54;99880;;;24;43
33432;BME280;35187;31.882;34.828;2023-07-20T10:35:24;99880;;;24;41
33432;BME280;35187;31.882;34.828;2023-07-20T10:37:54;99880;;;24;45
33432;BME280;35187;31.882;34.828;2023-07-20T10:40:28;99880;;;24;41
33432;BME280;35187;31.882;34.828;2023-07-20T10:43:00;99880;;;24;43
33432;BME280;35187;31.882;34.828;2023-07-20T10:45:35;99880;;;24;43
33432;BME280;35187;31.882;34.828;2023-07-20T10:48:04;99880;;;23;42
33432;BME280;35187;31.882;34.828;2023-07-20T10:50:33;99880;;;24;45
33432;BME280;35187;31.882;34.828;2023-07-20T10:53:10;99880;;;24;41
33432;BME280;35187;31.882;34.828;2023-07-20T10:55:39;99880;;;24;45
33432;BME280;35187;31.882;34.828;2023-07-20T10:58:10;99880;;;24;43
33432;BME280;35187;31.882;34.828;2023-07-20T11:00:56;99880;;;24;43
33432;BME280;35187;31.882;34.828;2023-07-20T11:03:30;99880;;;24;46
33432;BME280;35187;31.882;34.828;2023-07-20T11:05:59;99880;;;23;42
33432;BME280;35187;31.882;34.828;2023-07-20T11:09:04;99890;;;24;46
33432;BME280;35187;31.882;34.828;2023-07-20T11:11:35;99880;;;24;42
33432;BME280;35187;31.882;34.828;2023-07-20T11:14:05;99880;;;24;44
33432;BME280;35187;31.882;34.828;2023-07-20T11:16:36;99880;;;24;44
33432;BME280;35187;31.882;34.828;2023-07-20T11:19:10;99880;;;24;42
33432;BME280;35187;31.882;34.828;2023-07-20T11:21:43;99880;;;24;46
33432;BME280;35187;31.882;34.828;2023-07-20T11:24:13;99880;;;24;41
33432;BME280;35187;31.882;34.828;2023-07-20T11:26:43;99880;;;24;45
33432;BME280;35187;31.882;34.828;2023-07-20T11:29:12;99880;;;24;43
33432;BME280;35187;31.882;34.828;2023-07-20T11:31:43;99880;;;24;43
33432;BME280;35187;31.882;34.828;2023-07-20T11:34:13;99880;;;24;46
33432;BME280;35187;31.882;34.828;2023-07-20T11:36:43;99890;;;24;42
33432;BME280;35187;31.882;34.828;2023-07-20T11:39:13;99890;;;24;45
33432;BME280;35187;31.882;34.828;2023-07-20T11:41:46;99880;;;24;44
33432;BME280;35187;31.882;34.828;2023-07-20T11:44:16;99880;;;24;42
33432;BME280;35187;31.882;34.828;2023-07-20T11:46:45;99880;;;24;46
33432;BME280;35187;31.882;34.828;2023-07-20T11:49:14;99880;;;24;42
33432;BME280;35187;31.882;34.828;2023-07-20T11:51:43;99880;;;24;45
33432;BME280;35187;31.882;34.828;2023-07-20T11:54:12;99880;;;24;46
33432;BME280;35187;31.882;34.828;2023-07-20T11:56:42;99880;;;24;42
33432;BME280;35187;31.882;34.828;2023-07-20T11:59:12;99880;;;24;45
33432;BME280;35187;31.882;34.828;2023-07-20T12:01:41;99890;;;24;42
33432;BME280;35187;31.882;34.828;2023-07-20T12:04:10;99890;;;24;44
33432;BME280;35187;31.882;34.828;2023-07-20T12:06:38;99890;;;24;46
33432;BME280;35187;31.882;34.828;2023-07-20T12:09:14;99880;;;24;42
33432;BME280;35187;31.882;34.828;2023-07-20T12:11:44;99890;;;24;45
33432;BME280;35187;31.882;34.828;2023-07-20T12:14:13;99880;;;24;45
33432;BME280;35187;31.882;34.828;2023-07-20T12:16:42;99890;;;24;42
33432;BME280;35187;31.882;34.828;2023-07-20T12:19:12;99900;;;24;46
33432;BME280;35187;31.882;34.828;2023-07-20T12:21:41;99890;;;23;44
33432;BME280;35187;31.882;34.828;2023-07-20T12:24:11;99900;;;23;44
33432;BME280;35187;31.882;34.828;2023-07-20T12:26:40;99890;;;23;47
33432;BME280;35187;31.882;34.828;2023-07-20T12:29:08;99890;;;23;43
33432;BME280;35187;31.882;34.828;2023-07-20T12:31:37;99890;;;24;46
33432;BME280;35187;31.882;34.828;2023-07-20T12:34:06;99890;;;24;46
33432;BME280;35187;31.882;34.828;2023-07-20T12:36:35;99890;;;24;42
33432;BME280;35187;31.882;34.828;2023-07-20T12:39:03;99890;;;23;46
33432;BME280;35187;31.882;34.828;2023-07-20T12:41:32;99890;;;23;43
33432;BME280;35187;31.882;34.828;2023-07-20T12:44:01;99890;;;23;45
33432;BME280;35187;31.882;34.828;2023-07-20T12:46:30;99890;;;24;45
33432;BME280;35187;31.882;34.828;2023-07-20T12:49:01;99890;;;23;42
33432;BME280;35187;31.882;34.828;2023-07-20T12:51:30;99890;;;24;46
33432;BME280;35187;31.882;34.828;2023-07-20T12:53:59;99880;;;24;43
33432;BME280;35187;31.882;34.828;2023-07-20T12:56:28;99890;;;24;44
33432;BME280;35187;31.882;34.828;2023-07-20T12:58:56;99890;;;24;46
33432;BME280;35187;31.882;34.828;2023-07-20T13:01:25;99890;;;23;42
33432;BME280;35187;31.882;34.828;2023-07-20T13:03:54;99880;;;24;46
33432;BME280;35187;31.882;34.828;2023-07-20T13:06:23;99880;;;24;46
33432;BME280;35187;31.882;34.828;2023-07-20T13:08:52;99880;;;24;42
33432;BME280;35187;31.882;34.828;2023-07-20T13:11:22;99880;;;23;46
33432;BME280;35187;31.882;34.828;2023-07-20T13:13:51;99870;;;24;43
33432;BME280;35187;31.882;34.828;2023-07-20T13:16:20;99870;;;24;45
33432;BME280;35187;31.882;34.828;2023-07-20T13:18:48;99870;;;24;46
33432;BME280;35187;31.882;34.828;2023-07-20T13:21:17;99870;;;23;42
33432;BME280;35187;31.882;34.828;2023-07-20T13:23:46;99870;;;24;46
33432;BME280;35187;31.882;34.828;2023-07-20T13:26:16;99870;;;24;43
33432;BME280;35187;31.882;34.828;2023-07-20T13:28:44;99860;;;24;44
33432;BME280;35187;31.882;34.828;2023-07-20T13:31:13;99860;;;24;46
33432;BME280;35187;31.882;34.828;2023-07-20T13:33:42;99860;;;24;42
33432;BME280;35187;31.882;34.828;2023-07-20T13:36:11;99860;;;24;45
33432;BME280;35187;31.882;34.828;2023-07-20T13:38:40;99860;;;24;45
33432;BME280;35187;31.882;34.828;2023-07-20T13:41:08;99860;;;23;41
33432;BME280;35187;31.882;34.828;2023-07-20T13:43:37;99860;;;24;38
33432;BME280;35187;31.882;34.828;2023-07-20T13:46:06;99860;;;23;37
33432;BME280;35187;31.882;34.828;2023-07-20T13:48:35;99860;;;23;36
33432;BME280;35187;31.882;34.828;2023-07-20T13:51:04;99860;;;23;35
33432;BME280;35187;31.882;34.828;2023-07-20T13:53:33;99860;;;23;40
33432;BME280;35187;31.882;34.828;2023-07-20T13:56:02;99860;;;23;40
33432;BME280;35187;31.882;34.828;2023-07-20T13:58:31;99860;;;23;38
33432;BME280;35187;31.882;34.828;2023-07-20T14:01:00;99860;;;23;43
33432;BME280;35187;31.882;34.828;2023-07-20T14:03:29;99850;;;24;46
33432;BME280;35187;31.882;34.828;2023-07-20T14:05:58;99850;;;24;42
33432;BME280;35187;31.882;34.828;2023-07-20T14:08:27;99850;;;24;44
33432;BME280;35187;31.882;34.828;2023-07-20T14:10:56;99850;;;24;47
33432;BME280;35187;31.882;34.828;2023-07-20T14:13:25;99850;;;23;42
33432;BME280;35187;31.882;34.828;2023-07-20T14:15:53;99850;;;24;45
33432;BME280;35187;31.882;34.828;2023-07-20T14:18:22;99850;;;23;48
33432;BME280;35187;31.882;34.828;2023-07-20T14:20:51;99850;;;23;43
33432;BME280;35187;31.882;34.828;2023-07-20T14:23:20;99850;;;23;45
33432;BME280;35187;31.882;34.828;2023-07-20T14:25:49;99850;;;24;48
33432;BME280;35187;31.882;34.828;2023-07-20T14:28:18;99850;;;23;45
33432;BME280;35187;31.882;34.828;2023-07-20T14:30:46;99850;;;23;45
33432;BME280;35187;31.882;34.828;2023-07-20T14:33:15;99840;;;24;48
33432;BME280;35187;31.882;34.828;2023-07-20T14:35:44;99840;;;23;44
33432;BME280;35187;31.882;34.828;2023-07-20T14:38:13;99840;;;23;46
33432;BME280;35187;31.882;34.828;2023-07-20T14:40:43;99850;;;23;48
33432;BME280;35187;31.882;34.828;2023-07-20T14:43:11;99850;;;23;43
33432;BME280;35187;31.882;34.828;2023-07-20T14:45:46;99850;;;23;46
33432;BME280;35187;31.882;34.828;2023-07-20T14:48:15;99850;;;24;46